Time;durP1;ratioP1;P1;durP2;ratioP2;P2;SDS_P1;SDS_P2;PMS_P1;PMS_P2;Temp;Humidity;BMP_temperature;BMP_pressure;BME280_temperature;BME280_humidity;BME280_pressure;Samples;Min_cycle;Max_cycle;Signal;HPM_P1;HPM_P2
2023/08/02 00:02:12;;;;;;;7.05;3.40;;;16.50;99.90;;;;;;4977987;28;20089;-76
2023/08/02 00:04:38;;;;;;;9.52;4.25;;;16.50;99.90;;;;;;4980450;28;20445;-76
2023/08/02 00:07:04;;;;;;;9.43;4.28;;;16.50;99.90;;;;;;4969825;28;20046;-76
2023/08/02 00:09:32;;;;;;;10.27;4.10;;;16.50;99.90;;;;;;4988493;28;20054;-76
2023/08/02 00:11:58;;;;;;;7.63;4.25;;;16.50;99.90;;;;;;4983774;28;20043;-76
2023/08/02 00:14:24;;;;;;;9.00;4.30;;;16.50;99.90;;;;;;4990540;28;20057;-76
2023/08/02 00:16:49;;;;;;;11.77;4.47;;;16.50;99.90;;;;;;4966783;28;20457;-76
2023/08/02 00:19:15;;;;;;;9.07;4.35;;;16.50;99.90;;;;;;4974093;28;20050;-76
2023/08/02 00:21:42;;;;;;;10.00;4.30;;;16.50;99.90;;;;;;4976104;28;20035;-76
2023/08/02 00:24:09;;;;;;;9.63;4.30;;;16.50;99.90;;;;;;4982442;28;20560;-76
2023/08/02 00:26:35;;;;;;;9.02;4.47;;;16.50;99.90;;;;;;4964294;28;20093;-76
2023/08/02 00:29:01;;;;;;;11.13;4.40;;;16.50;99.90;;;;;;4968556;28;20081;-77
2023/08/02 00:31:26;;;;;;;10.25;4.43;;;16.50;99.90;;;;;;4973185;28;20046;-76
2023/08/02 00:33:52;;;;;;;9.95;4.20;;;16.50;99.90;;;;;;4973472;28;20528;-76
2023/08/02 00:36:18;;;;;;;11.55;4.53;;;16.50;99.90;;;;;;4983636;28;20086;-76
2023/08/02 00:38:43;;;;;;;11.88;4.70;;;16.50;99.90;;;;;;4967459;28;20104;-76
2023/08/02 00:41:09;;;;;;;9.70;4.07;;;16.50;99.90;;;;;;4949561;28;20104;-76
2023/08/02 00:43:40;;;;;;;9.15;4.32;;;16.50;99.90;;;;;;4983394;28;20418;-76
2023/08/02 00:46:09;;;;;;;11.90;4.10;;;16.50;99.90;;;;;;4963367;28;20058;-76
2023/08/02 00:48:35;;;;;;;12.00;4.55;;;16.50;99.90;;;;;;4970913;28;20125;-77
2023/08/02 00:51:02;;;;;;;11.70;4.32;;;16.50;99.90;;;;;;4988408;28;20046;-76
2023/08/02 00:53:28;;;;;;;11.30;4.22;;;16.50;99.90;;;;;;4979690;28;20065;-76
2023/08/02 00:55:55;;;;;;;13.65;4.22;;;16.50;99.90;;;;;;4978513;28;20038;-77
2023/08/02 00:58:21;;;;;;;;;;;16.50;99.90;;;;;;4959765;28;20094;-76
2023/08/02 01:00:46;;;;;;;10.48;3.92;;;16.50;99.90;;;;;;4960591;28;19921;-76
2023/08/02 01:03:12;;;;;;;8.82;3.50;;;16.50;99.90;;;;;;4962118;28;20675;-76
2023/08/02 01:05:43;;;;;;;9.07;3.95;;;16.50;99.90;;;;;;4981353;28;20047;-76
2023/08/02 01:08:14;;;;;;;10.30;4.00;;;16.50;99.90;;;;;;4973126;28;20050;-76
2023/08/02 01:10:58;;;;;;;11.85;4.20;;;16.50;99.90;;;;;;4979973;28;20516;-76
2023/08/02 01:13:25;;;;;;;12.63;4.03;;;16.50;99.90;;;;;;4988596;28;20049;-76
2023/08/02 01:15:51;;;;;;;11.02;4.63;;;16.50;99.90;;;;;;4965898;28;20410;-77
2023/08/02 01:18:17;;;;;;;16.80;5.00;;;16.50;99.90;;;;;;4972645;28;20042;-76
2023/08/02 01:20:43;;;;;;;14.15;4.65;;;16.50;99.90;;;;;;4965929;28;20058;-76
2023/08/02 01:23:08;;;;;;;13.70;4.50;;;16.50;99.90;;;;;;4979129;28;20046;-76
2023/08/02 01:25:35;;;;;;;10.60;4.07;;;16.50;99.90;;;;;;4977058;28;20537;-76
2023/08/02 01:28:05;;;;;;;11.48;4.35;;;16.50;99.90;;;;;;4984645;28;20054;-76
2023/08/02 01:30:38;;;;;;;11.45;4.35;;;16.50;99.90;;;;;;4984886;28;20047;-75
2023/08/02 01:33:05;;;;;;;10.70;4.03;;;16.50;99.90;;;;;;4970533;28;20046;-75
2023/08/02 01:35:32;;;;;;;7.80;3.75;;;16.50;99.90;;;;;;4979001;28;20429;-75
2023/08/02 01:37:58;;;;;;;;;;;16.50;99.90;;;;;;4969320;28;20042;-75
2023/08/02 01:40:23;;;;;;;11.57;4.30;;;16.50;99.90;;;;;;4982666;28;19948;-76
2023/08/02 01:42:49;;;;;;;14.63;4.78;;;16.40;99.90;;;;;;4971046;28;20140;-76
2023/08/02 01:45:15;;;;;;;14.50;4.40;;;16.50;99.90;;;;;;4984700;28;20437;-76
2023/08/02 01:47:41;;;;;;;12.52;5.00;;;16.50;99.90;;;;;;4975926;28;20834;-76
2023/08/02 01:50:07;;;;;;;14.05;4.47;;;16.50;99.90;;;;;;4973272;28;20489;-76
2023/08/02 01:52:32;;;;;;;11.52;4.13;;;16.50;99.90;;;;;;4971375;28;20050;-75
2023/08/02 01:54:58;;;;;;;13.27;4.57;;;16.50;99.90;;;;;;4981685;28;20038;-75
2023/08/02 01:57:23;;;;;;;11.02;4.32;;;16.40;99.90;;;;;;4979782;28;20050;-75
2023/08/02 01:59:49;;;;;;;13.18;4.57;;;16.50;99.90;;;;;;4964476;28;20062;-75
2023/08/02 02:02:16;;;;;;;14.27;4.70;;;16.50;99.90;;;;;;4964301;28;20042;-75
2023/08/02 02:04:42;;;;;;;12.73;4.50;;;16.50;99.90;;;;;;4967991;28;20494;-76
2023/08/02 02:07:07;;;;;;;14.15;4.70;;;16.50;99.90;;;;;;4965367;28;20042;-75
2023/08/02 02:09:33;;;;;;;13.65;4.45;;;16.40;99.90;;;;;;4969618;28;20050;-75
2023/08/02 02:11:59;;;;;;;11.73;4.70;;;16.40;99.90;;;;;;4957097;28;20050;-75
2023/08/02 02:14:24;;;;;;;11.65;4.72;;;16.40;99.90;;;;;;4965464;28;20058;-76
2023/08/02 02:16:50;;;;;;;13.18;4.45;;;16.50;99.90;;;;;;4967351;28;20406;-76
2023/08/02 02:19:16;;;;;;;13.05;4.68;;;16.50;99.90;;;;;;4962209;28;20042;-76
2023/08/02 02:21:41;;;;;;;11.60;4.78;;;16.40;99.90;;;;;;4964605;28;20042;-75
2023/08/02 02:24:07;;;;;;;13.40;4.50;;;16.40;99.90;;;;;;4953984;28;21007;-75
2023/08/02 02:26:36;;;;;;;15.23;4.78;;;16.40;99.90;;;;;;4954109;28;20054;-76
2023/08/02 02:29:02;;;;;;;13.00;4.40;;;16.40;99.90;;;;;;4964591;28;20067;-75
2023/08/02 02:31:28;;;;;;;13.73;5.00;;;16.40;99.90;;;;;;4960370;28;20718;-75
2023/08/02 02:33:53;;;;;;;13.35;4.85;;;16.30;99.90;;;;;;4961343;28;20051;-76
2023/08/02 02:36:19;;;;;;;13.98;5.57;;;16.30;99.90;;;;;;4959210;28;20031;-75
2023/08/02 02:38:44;;;;;;;14.45;4.50;;;16.30;99.90;;;;;;4962266;28;20474;-75
2023/08/02 02:41:10;;;;;;;12.27;4.93;;;16.30;99.90;;;;;;4959378;28;20042;-75
2023/08/02 02:43:36;;;;;;;15.38;5.00;;;16.30;99.90;;;;;;4967612;28;20057;-75
2023/08/02 02:46:01;;;;;;;14.25;5.00;;;16.30;99.90;;;;;;4960064;28;20098;-75
2023/08/02 02:48:27;;;;;;;11.25;5.22;;;16.30;99.90;;;;;;4965909;28;20050;-75
2023/08/02 02:50:53;;;;;;;13.80;5.82;;;16.20;99.90;;;;;;4960147;28;20120;-75
2023/08/02 02:53:20;;;;;;;13.77;5.57;;;16.20;99.90;;;;;;4964869;28;20049;-75
2023/08/02 02:55:46;;;;;;;;;;;16.20;99.90;;;;;;4963519;28;20047;-75
2023/08/02 02:58:12;;;;;;;13.38;5.95;;;16.10;99.90;;;;;;4959815;28;19972;-75
2023/08/02 03:00:37;;;;;;;14.07;6.00;;;16.10;99.90;;;;;;4986842;28;20553;-75
2023/08/02 03:03:03;;;;;;;16.13;6.07;;;16.00;99.90;;;;;;4973819;28;20046;-74
2023/08/02 03:05:29;;;;;;;13.55;6.07;;;15.90;99.90;;;;;;4980501;28;20050;-76
2023/08/02 03:07:55;;;;;;;15.40;5.72;;;16.00;99.90;;;;;;4982219;28;20392;-76
2023/08/02 03:10:20;;;;;;;11.95;5.20;;;15.90;99.90;;;;;;4965381;28;20046;-76
2023/08/02 03:12:46;;;;;;;11.02;5.20;;;15.90;99.90;;;;;;4966050;28;20097;-76
2023/08/02 03:15:12;;;;;;;13.40;6.57;;;15.90;99.90;;;;;;4983865;28;20079;-77
2023/08/02 03:17:37;;;;;;;12.63;6.68;;;15.80;99.90;;;;;;4985945;28;20117;-76
2023/08/02 03:20:03;;;;;;;13.93;8.55;;;15.80;99.90;;;;;;4983723;28;20113;-77
2023/08/02 03:22:29;;;;;;;16.50;9.70;;;15.80;99.90;;;;;;4981959;28;20585;-76
2023/08/02 03:24:55;;;;;;;14.20;9.77;;;15.80;99.90;;;;;;4978964;28;20046;-76
2023/08/02 03:27:20;;;;;;;13.85;9.25;;;15.80;99.90;;;;;;4962927;28;20057;-76
2023/08/02 03:29:46;;;;;;;17.25;9.98;;;15.90;99.90;;;;;;4983269;28;20047;-76
2023/08/02 03:32:12;;;;;;;14.27;8.63;;;15.80;99.90;;;;;;4985525;28;20039;-77
2023/08/02 03:34:37;;;;;;;19.45;9.50;;;15.80;99.90;;;;;;4965434;28;20105;-76
2023/08/02 03:37:03;;;;;;;16.88;9.90;;;15.80;99.90;;;;;;4975769;28;20043;-76
2023/08/02 03:39:29;;;;;;;13.38;8.90;;;15.80;99.90;;;;;;4970257;28;20056;-76
2023/08/02 03:41:55;;;;;;;13.38;8.82;;;15.80;99.90;;;;;;4983999;28;20166;-76
2023/08/02 03:44:21;;;;;;;14.38;7.32;;;15.80;99.90;;;;;;4966366;28;20105;-76
2023/08/02 03:46:50;;;;;;;14.70;7.22;;;15.70;99.90;;;;;;4980215;28;20105;-76
2023/08/02 03:49:15;;;;;;;11.75;5.97;;;15.80;99.90;;;;;;4983237;28;20042;-76
2023/08/02 03:51:41;;;;;;;11.20;5.53;;;15.80;99.90;;;;;;4987481;28;20429;-76
2023/08/02 03:54:07;;;;;;;15.32;5.57;;;15.70;99.90;;;;;;4968724;28;20043;-76
2023/08/02 03:56:33;;;;;;;12.80;6.17;;;15.70;99.90;;;;;;4986632;28;20056;-76
2023/08/02 03:58:59;;;;;;;14.18;6.45;;;15.70;99.90;;;;;;4956328;28;20069;-77
2023/08/02 04:01:28;;;;;;;13.32;6.40;;;15.70;99.90;;;;;;4984536;28;20133;-76
2023/08/02 04:03:53;;;;;;;13.75;6.90;;;15.70;99.90;;;;;;4980753;28;20185;-76
2023/08/02 04:06:19;;;;;;;14.15;6.63;;;15.60;99.90;;;;;;4966758;28;20089;-76
2023/08/02 04:08:45;;;;;;;13.68;7.65;;;15.60;99.90;;;;;;4986366;28;20049;-76
2023/08/02 04:11:10;;;;;;;14.63;7.78;;;15.60;99.90;;;;;;4983255;28;20050;-76
2023/08/02 04:13:36;;;;;;;13.43;7.68;;;15.70;99.90;;;;;;4979991;28;20047;-76
2023/08/02 04:16:02;;;;;;;15.30;9.05;;;15.70;99.90;;;;;;4985897;28;20030;-76
2023/08/02 04:18:28;;;;;;;17.08;8.95;;;15.70;99.90;;;;;;4969012;28;20445;-77
2023/08/02 04:20:54;;;;;;;13.38;8.60;;;15.70;99.90;;;;;;4982853;28;20046;-77
2023/08/02 04:23:20;;;;;;;14.50;8.35;;;15.70;99.90;;;;;;4986582;28;20112;-76
2023/08/02 04:25:45;;;;;;;16.80;9.00;;;15.70;99.90;;;;;;4972772;28;20660;-76
2023/08/02 04:28:11;;;;;;;13.85;8.52;;;15.70;99.90;;;;;;4980039;28;20042;-76
2023/08/02 04:30:36;;;;;;;13.43;8.80;;;15.70;99.90;;;;;;4990250;28;20045;-76
2023/08/02 04:33:02;;;;;;;13.85;8.82;;;15.70;99.90;;;;;;4976343;28;20042;-76
2023/08/02 04:35:31;;;;;;;13.88;8.57;;;15.70;99.90;;;;;;4978481;28;20568;-77
2023/08/02 04:37:57;;;;;;;14.95;9.18;;;15.70;99.90;;;;;;4985314;28;20141;-77
2023/08/02 04:40:22;;;;;;;15.65;9.13;;;15.70;99.90;;;;;;4968563;28;20189;-76
2023/08/02 04:42:50;;;;;;;11.18;7.45;;;15.60;99.90;;;;;;4978683;28;20045;-76
2023/08/02 04:45:15;;;;;;;;;;;15.70;99.90;;;;;;4980553;28;20078;-76
2023/08/02 04:47:41;;;;;;;13.70;7.70;;;15.70;99.90;;;;;;4978386;28;20455;-76
2023/08/02 04:50:07;;;;;;;11.23;6.97;;;15.60;99.90;;;;;;4983034;28;20114;-76
2023/08/02 04:52:34;;;;;;;13.40;6.95;;;15.70;99.90;;;;;;4979239;28;20322;-76
2023/08/02 04:55:00;;;;;;;13.75;6.75;;;15.70;99.90;;;;;;4979525;28;20118;-76
2023/08/02 04:57:25;;;;;;;9.70;5.82;;;15.80;99.90;;;;;;4988264;28;20227;-77
2023/08/02 04:59:54;;;;;;;10.50;5.95;;;15.80;99.90;;;;;;4969564;28;20406;-77
2023/08/02 05:02:29;;;;;;;12.35;5.93;;;15.80;99.90;;;;;;4981469;28;20495;-76
2023/08/02 05:04:54;;;;;;;12.30;5.70;;;15.80;99.90;;;;;;4985209;28;20042;-76
2023/08/02 05:07:20;;;;;;;10.38;5.47;;;15.80;99.90;;;;;;4982787;28;20104;-76
2023/08/02 05:09:45;;;;;;;10.55;6.43;;;15.90;99.90;;;;;;4982827;28;20070;-76
2023/08/02 05:12:11;;;;;;;11.27;6.28;;;15.90;99.90;;;;;;4983053;28;20129;-76
2023/08/02 05:14:37;;;;;;;9.45;5.28;;;16.00;99.90;;;;;;4983055;28;20050;-76
2023/08/02 05:17:07;;;;;;;8.38;5.57;;;16.00;99.90;;;;;;4957862;28;20046;-76
2023/08/02 05:19:33;;;;;;;10.95;5.43;;;15.90;99.90;;;;;;4979528;28;20050;-76
2023/08/02 05:21:59;;;;;;;12.18;5.60;;;16.00;99.90;;;;;;4969440;28;20149;-76
2023/08/02 05:24:26;;;;;;;8.23;4.90;;;16.00;99.90;;;;;;4986078;28;20133;-76
2023/08/02 05:26:51;;;;;;;11.65;5.22;;;16.00;99.90;;;;;;4984164;28;20995;-76
2023/08/02 05:29:17;;;;;;;10.93;5.55;;;16.10;99.90;;;;;;4970720;28;20061;-76
2023/08/02 05:31:43;;;;;;;11.90;5.35;;;16.10;99.90;;;;;;4959750;28;20085;-76
2023/08/02 05:34:08;;;;;;;10.05;4.95;;;16.10;99.90;;;;;;4977816;28;20131;-76
2023/08/02 05:36:34;;;;;;;9.55;5.25;;;16.10;99.90;;;;;;4970377;28;20093;-76
2023/08/02 05:39:00;;;;;;;9.68;5.40;;;16.10;99.90;;;;;;4986548;28;20074;-76
2023/08/02 05:41:25;;;;;;;9.68;5.15;;;16.20;99.90;;;;;;4984930;28;20038;-76
2023/08/02 05:43:51;;;;;;;10.88;5.70;;;16.20;99.90;;;;;;4981017;28;20050;-76
2023/08/02 05:46:17;;;;;;;10.57;5.10;;;16.20;99.90;;;;;;4974610;28;20038;-76
2023/08/02 05:48:43;;;;;;;12.27;5.45;;;16.20;99.90;;;;;;4981213;28;20054;-74
2023/08/02 05:51:09;;;;;;;9.63;5.20;;;16.30;99.90;;;;;;4956670;28;20039;-74
2023/08/02 05:53:35;;;;;;;11.20;5.45;;;16.40;99.90;;;;;;4986594;28;20488;-74
2023/08/02 05:56:00;;;;;;;9.02;5.20;;;16.40;99.90;;;;;;4979668;28;20120;-74
2023/08/02 05:58:26;;;;;;;9.93;5.18;;;16.50;99.90;;;;;;4967994;28;20051;-74
2023/08/02 06:00:52;;;;;;;11.52;5.30;;;16.50;99.90;;;;;;4956744;28;20046;-74
2023/08/02 06:03:18;;;;;;;9.68;5.20;;;16.60;99.90;;;;;;4983166;28;20034;-74
2023/08/02 06:05:43;;;;;;;9.35;4.90;;;16.60;99.90;;;;;;4987937;28;20363;-74
2023/08/02 06:08:09;;;;;;;12.32;5.30;;;16.70;99.90;;;;;;4977922;28;20026;-74
2023/08/02 06:10:35;;;;;;;10.35;5.25;;;16.70;99.90;;;;;;4981155;28;20069;-73
2023/08/02 06:13:00;;;;;;;10.48;5.57;;;16.70;99.90;;;;;;4987352;28;20049;-72
2023/08/02 06:15:27;;;;;;;9.55;4.68;;;16.80;99.90;;;;;;4967731;28;20046;-72
2023/08/02 06:17:53;;;;;;;10.65;5.22;;;16.80;99.90;;;;;;4985460;28;20090;-73
2023/08/02 06:20:18;;;;;;;11.30;5.00;;;16.80;99.90;;;;;;4967996;28;20073;-73
2023/08/02 06:22:44;;;;;;;13.50;5.13;;;16.80;99.90;;;;;;4968158;28;20042;-72
2023/08/02 06:25:10;;;;;;;9.98;5.18;;;16.80;99.90;;;;;;4985068;28;20038;-72
2023/08/02 06:27:35;;;;;;;10.70;4.70;;;16.90;99.90;;;;;;4966099;28;20096;-73
2023/08/02 06:30:01;;;;;;;10.40;4.78;;;16.80;99.90;;;;;;4965047;28;20052;-72
2023/08/02 06:32:27;;;;;;;8.80;4.50;;;16.90;99.90;;;;;;4982013;28;20038;-73
2023/08/02 06:34:52;;;;;;;8.95;4.50;;;16.80;99.90;;;;;;4984866;28;20663;-72
2023/08/02 06:37:18;;;;;;;8.73;4.40;;;16.80;99.90;;;;;;4985224;28;20070;-72
2023/08/02 06:39:44;;;;;;;10.27;4.90;;;16.80;99.90;;;;;;4966262;28;20065;-72
2023/08/02 06:42:09;;;;;;;8.52;4.85;;;16.80;99.90;;;;;;4984029;28;20038;-72
2023/08/02 06:44:35;;;;;;;9.00;4.60;;;16.80;99.90;;;;;;4972314;28;20038;-72
2023/08/02 06:47:01;;;;;;;10.48;5.15;;;16.80;99.90;;;;;;4983636;28;20043;-72
2023/08/02 06:49:29;;;;;;;10.88;4.50;;;16.80;99.90;;;;;;4987442;28;20444;-73
2023/08/02 06:51:55;;;;;;;9.73;4.85;;;16.90;99.90;;;;;;4986908;28;20046;-72
2023/08/02 06:54:21;;;;;;;10.98;4.97;;;16.90;99.90;;;;;;4984074;28;20038;-72
2023/08/02 06:56:46;;;;;;;9.43;4.50;;;16.90;99.90;;;;;;4986204;28;20049;-71
2023/08/02 06:59:12;;;;;;;9.15;4.55;;;16.90;99.90;;;;;;4985736;28;20401;-76
2023/08/02 07:01:38;;;;;;;8.55;4.50;;;16.90;99.90;;;;;;4983500;28;20050;-76
2023/08/02 07:04:03;;;;;;;8.30;4.38;;;16.90;99.90;;;;;;4984018;28;20797;-74
2023/08/02 07:06:29;;;;;;;8.43;4.57;;;16.90;99.90;;;;;;4974385;28;20046;-75
2023/08/02 07:08:56;;;;;;;9.52;4.40;;;17.00;99.90;;;;;;4980595;28;20121;-76
2023/08/02 07:11:22;;;;;;;10.63;4.47;;;16.90;99.90;;;;;;4978609;28;20042;-76
2023/08/02 07:13:48;;;;;;;10.70;4.68;;;16.90;99.90;;;;;;4984133;28;20478;-73
2023/08/02 07:16:13;;;;;;;8.57;4.30;;;16.90;99.90;;;;;;4963044;28;20062;-75
2023/08/02 07:18:39;;;;;;;10.77;4.60;;;16.90;99.90;;;;;;4977920;28;20042;-76
2023/08/02 07:21:06;;;;;;;8.18;4.05;;;16.90;99.90;;;;;;4966091;28;20038;-77
2023/08/02 07:23:32;;;;;;;9.65;4.60;;;16.80;99.90;;;;;;4986311;28;20061;-76
2023/08/02 07:25:57;;;;;;;10.13;4.15;;;16.80;99.90;;;;;;4971579;28;20039;-77
2023/08/02 07:28:23;;;;;;;8.77;4.10;;;16.90;99.90;;;;;;4962869;28;20057;-76
2023/08/02 07:30:49;;;;;;;8.00;3.40;;;16.80;99.90;;;;;;4960866;28;20101;-74
2023/08/02 07:33:14;;;;;;;7.80;4.05;;;16.80;99.90;;;;;;4969946;28;20054;-74
2023/08/02 07:35:41;;;;;;;9.27;3.97;;;16.80;99.90;;;;;;4982482;28;20038;-74
2023/08/02 07:38:07;;;;;;;9.88;4.10;;;16.80;99.90;;;;;;4972518;28;20042;-71
2023/08/02 07:40:33;;;;;;;9.73;4.57;;;16.80;99.90;;;;;;4973105;28;20105;-76
2023/08/02 07:42:59;;;;;;;9.80;4.25;;;16.90;99.90;;;;;;4986029;28;20043;-73
2023/08/02 07:45:24;;;;;;;9.68;3.95;;;16.90;99.90;;;;;;4987202;28;20104;-73
2023/08/02 07:47:50;;;;;;;8.13;4.05;;;16.80;99.90;;;;;;4979658;28;20054;-72
2023/08/02 07:50:16;;;;;;;8.93;4.47;;;16.80;99.90;;;;;;4976995;28;20045;-72
2023/08/02 07:52:41;;;;;;;9.07;4.22;;;16.90;99.90;;;;;;4973091;28;20838;-72
2023/08/02 07:55:07;;;;;;;9.68;4.78;;;16.80;99.90;;;;;;4979302;28;20108;-71
2023/08/02 07:57:34;;;;;;;10.18;4.72;;;16.80;99.90;;;;;;4971987;28;20085;-70
2023/08/02 08:00:00;;;;;;;11.23;4.82;;;16.80;99.90;;;;;;4964679;28;20050;-68
2023/08/02 08:02:27;;;;;;;9.63;4.63;;;16.80;99.90;;;;;;4984595;28;20078;-73
2023/08/02 08:04:56;;;;;;;12.02;5.15;;;16.80;99.90;;;;;;4982814;28;20038;-75
2023/08/02 08:07:22;;;;;;;10.95;5.32;;;16.70;99.90;;;;;;4983746;28;20082;-75
2023/08/02 08:09:50;;;;;;;10.95;4.80;;;16.70;99.90;;;;;;4972322;28;20034;-78
2023/08/02 08:12:16;;;;;;;15.02;5.72;;;16.70;99.90;;;;;;4983835;28;20039;-77
2023/08/02 08:14:42;;;;;;;9.98;4.88;;;16.60;99.90;;;;;;4972295;28;20109;-77
2023/08/02 08:17:08;;;;;;;12.80;5.23;;;16.60;99.90;;;;;;4988363;28;20397;-77
2023/08/02 08:19:34;;;;;;;12.18;4.70;;;16.60;99.90;;;;;;4988560;28;20570;-75
2023/08/02 08:22:00;;;;;;;10.80;5.07;;;16.60;99.90;;;;;;4977614;28;20125;-74
2023/08/02 08:24:26;;;;;;;10.88;5.20;;;16.60;99.90;;;;;;4984834;28;20046;-75
2023/08/02 08:26:55;;;;;;;9.55;5.50;;;16.60;99.90;;;;;;4978351;28;20401;-75
2023/08/02 08:29:20;;;;;;;11.23;5.45;;;16.60;99.90;;;;;;4983454;28;20494;-78
2023/08/02 08:31:46;;;;;;;9.77;5.38;;;16.60;99.90;;;;;;4968233;28;20049;-78
2023/08/02 08:34:13;;;;;;;10.55;5.75;;;16.60;99.90;;;;;;4973266;28;20043;-77
2023/08/02 08:36:39;;;;;;;10.93;5.43;;;16.60;99.90;;;;;;4985239;28;20053;-78
2023/08/02 08:39:05;;;;;;;10.95;5.75;;;16.60;99.90;;;;;;4976821;28;20053;-76
2023/08/02 08:41:31;;;;;;;12.07;5.85;;;16.60;99.90;;;;;;4978531;28;20091;-78
2023/08/02 08:43:59;;;;;;;11.73;5.65;;;16.60;99.90;;;;;;4986622;28;20050;-77
2023/08/02 08:46:26;;;;;;;10.23;5.32;;;16.60;99.90;;;;;;4975157;28;20042;-76
2023/08/02 08:48:51;;;;;;;13.83;5.63;;;16.70;99.90;;;;;;4982075;28;20046;-76
2023/08/02 08:51:21;;;;;;;10.77;5.35;;;16.80;99.90;;;;;;4974442;28;20055;-76
2023/08/02 08:53:48;;;;;;;8.60;5.03;;;16.80;99.90;;;;;;4974858;28;20057;-77
2023/08/02 08:56:15;;;;;;;9.98;5.40;;;16.90;99.90;;;;;;4988025;28;20046;-77
2023/08/02 08:58:43;;;;;;;8.48;4.90;;;17.00;99.90;;;;;;4987036;28;20097;-81
2023/08/02 09:01:09;;;;;;;9.98;5.70;;;17.00;99.90;;;;;;4959601;28;20047;-82
2023/08/02 09:03:35;;;;;;;11.57;5.22;;;17.10;99.90;;;;;;4973280;28;20361;-79
2023/08/02 09:06:02;;;;;;;9.82;5.25;;;17.10;99.90;;;;;;4967325;28;20467;-73
2023/08/02 09:08:29;;;;;;;9.88;5.90;;;17.10;99.90;;;;;;4984657;28;20054;-77
2023/08/02 09:10:55;;;;;;;8.88;5.50;;;17.10;99.90;;;;;;4981782;28;20047;-76
2023/08/02 09:13:25;;;;;;;10.52;5.60;;;17.10;99.90;;;;;;4983389;28;20490;-76
2023/08/02 09:16:20;;;;;;;11.90;5.45;;;17.00;99.90;;;;;;4972915;28;20081;-76
2023/08/02 09:18:47;;;;;;;11.45;5.65;;;17.10;99.90;;;;;;4980178;28;20373;-75
2023/08/02 09:21:19;;;;;;;;;;;17.00;99.90;;;;;;4979235;28;20038;-73
2023/08/02 09:24:00;;;;;;;9.18;5.38;;;17.00;99.90;;;;;;4983307;28;20408;-73
2023/08/02 09:26:28;;;;;;;10.15;5.65;;;17.00;99.90;;;;;;4984819;28;20669;-75
2023/08/02 09:28:58;;;;;;;8.25;5.13;;;17.00;99.90;;;;;;4979152;28;20060;-74
2023/08/02 09:31:25;;;;;;;8.15;4.93;;;17.00;99.90;;;;;;4981453;28;20042;-71
2023/08/02 09:33:52;;;;;;;;;;;17.10;99.90;;;;;;4984017;28;20046;-73
2023/08/02 09:36:38;;;;;;;7.55;5.18;;;17.10;99.90;;;;;;4984666;28;19921;-73
2023/08/02 09:39:16;;;;;;;7.47;5.05;;;17.10;99.90;;;;;;4980998;28;20109;-73
2023/08/02 09:41:42;;;;;;;6.13;5.13;;;17.20;99.90;;;;;;4944356;28;20046;-78
2023/08/02 09:44:08;;;;;;;7.45;4.72;;;17.10;99.90;;;;;;4974915;28;20042;-78
2023/08/02 09:46:36;;;;;;;8.18;4.68;;;17.10;99.90;;;;;;4981700;28;20057;-77
2023/08/02 09:49:16;;;;;;;6.72;4.68;;;17.10;99.90;;;;;;4984841;28;20042;-78
2023/08/02 09:51:43;;;;;;;7.95;4.72;;;17.10;99.90;;;;;;4982634;28;20502;-78
2023/08/02 09:54:10;;;;;;;6.43;4.35;;;17.10;99.90;;;;;;4973089;28;20038;-79
2023/08/02 09:56:38;;;;;;;6.65;4.78;;;17.10;99.90;;;;;;4963084;28;20469;-81
2023/08/02 09:59:04;;;;;;;;;;;17.00;99.90;;;;;;4973225;28;20063;-79
2023/08/02 10:01:31;;;;;;;6.93;4.37;;;17.00;99.90;;;;;;4976443;28;19922;-76
2023/08/02 10:04:07;;;;;;;5.72;4.18;;;17.00;99.90;;;;;;4953703;28;20380;-75
2023/08/02 10:06:52;;;;;;;6.70;4.40;;;17.00;99.90;;;;;;4983751;28;20498;-75
2023/08/02 10:09:20;;;;;;;5.72;4.32;;;17.00;99.90;;;;;;4975258;28;20045;-81
2023/08/02 10:12:08;;;;;;;5.28;3.85;;;17.00;99.90;;;;;;4979090;28;20423;-75
2023/08/02 10:14:34;;;;;;;5.55;3.60;;;17.10;99.90;;;;;;4980886;28;20046;-77
2023/08/02 10:17:01;;;;;;;6.60;3.43;;;17.10;99.90;;;;;;4970557;28;20586;-75
2023/08/02 10:19:33;;;;;;;4.68;3.00;;;17.00;99.90;;;;;;4970490;28;20054;-75
2023/08/02 10:22:00;;;;;;;4.18;2.92;;;17.00;99.90;;;;;;4972530;28;20045;-80
2023/08/02 10:24:27;;;;;;;5.00;3.17;;;17.10;99.90;;;;;;4984824;28;20069;-75
2023/08/02 10:27:03;;;;;;;3.75;3.00;;;17.10;99.90;;;;;;4972566;28;20476;-75
2023/08/02 10:29:31;;;;;;;4.78;2.83;;;17.10;99.90;;;;;;4984172;28;20508;-74
2023/08/02 10:31:57;;;;;;;4.43;2.53;;;17.10;99.90;;;;;;4985759;28;20073;-78
2023/08/02 10:34:35;;;;;;;4.03;2.75;;;17.10;99.90;;;;;;4966074;28;20067;-77
2023/08/02 10:37:01;;;;;;;2.45;2.10;;;17.20;99.90;;;;;;4979043;28;20050;-75
2023/08/02 10:39:45;;;;;;;4.43;2.50;;;17.10;99.90;;;;;;4970250;28;20129;-76
2023/08/02 10:42:11;;;;;;;2.58;2.38;;;17.20;99.90;;;;;;4970281;28;20118;-81
2023/08/02 10:44:57;;;;;;;2.97;2.30;;;17.20;99.90;;;;;;4979937;28;20101;-80
2023/08/02 10:47:23;;;;;;;2.65;2.10;;;17.20;99.90;;;;;;4975412;28;20513;-79
2023/08/02 10:49:49;;;;;;;2.45;2.13;;;17.20;99.90;;;;;;4959441;28;20062;-80
2023/08/02 10:52:38;;;;;;;2.40;2.00;;;17.20;99.90;;;;;;4983280;28;20057;-82
2023/08/02 10:55:13;;;;;;;2.30;2.10;;;17.20;99.90;;;;;;4979327;28;20191;-83
2023/08/02 10:58:05;;;;;;;2.22;1.65;;;17.20;99.90;;;;;;4959734;28;20155;-80
2023/08/02 11:00:33;;;;;;;2.25;1.90;;;17.30;99.90;;;;;;4967037;28;20069;-75
2023/08/02 11:03:00;;;;;;;1.77;1.60;;;17.30;99.90;;;;;;4976680;28;20509;-84
2023/08/02 11:05:46;;;;;;;;;;;17.40;99.90;;;;;;4976948;28;20046;-82
2023/08/02 11:08:12;;;;;;;2.00;1.50;;;17.40;99.90;;;;;;4978720;28;20004;-82
2023/08/02 11:10:53;;;;;;;1.70;1.60;;;17.40;99.90;;;;;;4960499;28;20489;-82
2023/08/02 11:13:19;;;;;;;2.60;2.17;;;17.40;99.90;;;;;;4974652;28;20069;-82
2023/08/02 11:15:45;;;;;;;3.85;2.50;;;17.40;99.90;;;;;;4981135;28;20163;-81
2023/08/02 11:18:12;;;;;;;2.70;1.70;;;17.50;99.90;;;;;;4980696;28;20051;-82
2023/08/02 11:20:38;;;;;;;1.60;1.50;;;17.50;99.90;;;;;;4971948;28;20050;-82
2023/08/02 11:23:23;;;;;;;2.40;1.60;;;17.60;99.90;;;;;;4980890;28;20038;-83
2023/08/02 11:26:08;;;;;;;2.25;1.60;;;17.70;99.90;;;;;;4976571;28;20613;-81
2023/08/02 11:28:42;;;;;;;1.50;1.40;;;17.80;99.90;;;;;;4987924;28;20057;-81
2023/08/02 11:31:11;;;;;;;2.05;1.60;;;17.80;99.90;;;;;;4966695;28;20053;-82
2023/08/02 11:33:38;;;;;;;6.15;4.25;;;17.90;99.90;;;;;;4982628;28;20398;-82
2023/08/02 11:36:05;;;;;;;6.35;4.20;;;17.90;99.90;;;;;;4984537;28;20042;-80
2023/08/02 11:38:31;;;;;;;2.75;2.20;;;17.90;99.90;;;;;;4982140;28;20053;-80
2023/08/02 11:40:57;;;;;;;3.35;2.20;;;17.80;99.90;;;;;;4986223;28;20386;-81
2023/08/02 11:43:42;;;;;;;7.47;5.17;;;17.80;99.90;;;;;;4989833;28;20046;-81
2023/08/02 11:46:21;;;;;;;4.22;2.50;;;17.90;99.90;;;;;;4974408;28;20046;-81
2023/08/02 11:48:48;;;;;;;1.90;1.50;;;17.90;99.90;;;;;;4982988;28;20088;-81
2023/08/02 11:51:15;;;;;;;2.05;1.70;;;18.00;99.90;;;;;;4983737;28;20045;-82
2023/08/02 11:53:55;;;;;;;1.63;1.52;;;18.10;99.90;;;;;;4980514;28;20502;-82
2023/08/02 11:56:22;;;;;;;1.77;1.67;;;18.20;99.90;;;;;;4981217;28;20129;-81
2023/08/02 11:58:49;;;;;;;1.60;1.50;;;18.30;99.90;;;;;;4980543;28;20122;-82
2023/08/02 12:01:15;;;;;;;2.55;1.80;;;18.30;99.90;;;;;;4988530;28;20260;-81
2023/08/02 12:04:02;;;;;;;9.17;8.03;;;18.40;99.90;;;;;;4968979;28;20493;-82
2023/08/02 12:06:50;;;;;;;11.27;10.07;;;18.50;99.90;;;;;;4961221;28;20505;-81
2023/08/02 12:09:17;;;;;;;10.50;9.25;;;18.60;99.90;;;;;;4967193;28;20049;-84
2023/08/02 12:11:44;;;;;;;6.35;4.90;;;18.70;99.90;;;;;;4985167;28;20042;-75
2023/08/02 12:14:10;;;;;;;7.13;5.80;;;18.90;99.90;;;;;;4973849;28;20053;-83
2023/08/02 12:16:41;;;;;;;7.35;5.80;;;19.10;99.90;;;;;;4969597;28;20102;-84
2023/08/02 12:19:07;;;;;;;7.50;6.70;;;19.20;99.90;;;;;;4979048;28;20043;-76
2023/08/02 12:21:32;;;;;;;4.60;4.20;;;19.30;99.90;;;;;;4975236;28;20030;-80
2023/08/02 12:23:58;;;;;;;4.22;3.72;;;19.50;99.90;;;;;;4998167;28;20050;-81
2023/08/02 12:26:28;;;;;;;5.65;5.10;;;19.60;99.90;;;;;;4971118;28;20039;-82
2023/08/02 12:28:54;;;;;;;6.85;6.25;;;19.80;99.90;;;;;;4972690;28;20054;-81
2023/08/02 12:31:20;;;;;;;9.38;8.23;;;20.00;99.90;;;;;;4973887;28;20041;-83
2023/08/02 12:33:48;;;;;;;6.60;5.43;;;20.10;99.90;;;;;;4980770;28;20398;-83
2023/08/02 12:36:27;;;;;;;5.78;5.22;;;20.20;99.90;;;;;;4983734;28;20050;-81
2023/08/02 12:38:55;;;;;;;5.20;4.70;;;20.30;99.90;;;;;;4984986;28;20062;-87
2023/08/02 12:41:21;;;;;;;;;;;20.30;99.90;;;;;;4985500;28;20117;-76
2023/08/02 12:43:46;;;;;;;4.17;3.80;;;20.30;99.90;;;;;;4983527;28;20397;-80
2023/08/02 12:46:13;;;;;;;4.65;4.25;;;20.30;99.90;;;;;;5000594;28;20034;-80